Time;durP1;ratioP1;P1;durP2;ratioP2;P2;SDS_P1;SDS_P2;PMS_P1;PMS_P2;Temp;Humidity;BMP_temperature;BMP_pressure;BME280_temperature;BME280_humidity;BME280_pressure;Samples;Min_cycle;Max_cycle;Signal;HPM_P1;HPM_P2
2023/07/11 00:00:58;;;;;;;17.37;12.57;;;20.70;81.10;;;;;;4836303;29;20050;-91
2023/07/11 00:03:25;;;;;;;17.08;12.23;;;20.60;81.30;;;;;;4865823;29;20088;-91
2023/07/11 00:06:03;;;;;;;17.55;11.13;;;20.60;81.10;;;;;;4848497;29;20099;-91
2023/07/11 00:08:30;;;;;;;17.40;11.55;;;20.60;81.00;;;;;;4832590;29;20058;-91
2023/07/11 00:10:57;;;;;;;17.58;12.23;;;20.60;80.80;;;;;;4832974;29;20515;-90
2023/07/11 00:13:24;;;;;;;16.90;11.33;;;20.60;80.90;;;;;;4849440;29;20057;-91
2023/07/11 00:16:01;;;;;;;15.80;10.75;;;20.60;81.30;;;;;;4842409;29;20102;-91
2023/07/11 00:18:31;;;;;;;16.98;10.02;;;20.60;80.80;;;;;;4837016;29;20116;-91
2023/07/11 00:20:58;;;;;;;15.63;10.30;;;20.60;80.50;;;;;;4847220;29;20118;-91
2023/07/11 00:23:25;;;;;;;13.77;10.25;;;20.60;80.10;;;;;;4837796;29;20496;-90
2023/07/11 00:25:52;;;;;;;13.80;9.80;;;20.60;80.30;;;;;;4846857;29;20101;-90
2023/07/11 00:28:20;;;;;;;16.50;10.95;;;20.60;80.10;;;;;;4835625;29;20045;-91
2023/07/11 00:30:51;;;;;;;16.73;9.48;;;20.60;80.20;;;;;;4827820;29;20269;-91
2023/07/11 00:33:19;;;;;;;17.23;10.52;;;20.60;79.80;;;;;;4836666;29;20072;-91
2023/07/11 00:35:51;;;;;;;16.65;10.50;;;20.60;80.00;;;;;;4837212;29;20102;-91
2023/07/11 00:38:19;;;;;;;14.10;9.67;;;20.70;80.00;;;;;;4833013;29;20053;-91
2023/07/11 00:40:48;;;;;;;15.32;10.93;;;20.70;79.90;;;;;;4835125;29;20057;-89
2023/07/11 00:43:20;;;;;;;17.40;11.98;;;20.80;79.60;;;;;;4837513;29;20064;-91
2023/07/11 00:46:09;;;;;;;15.85;11.30;;;20.70;79.80;;;;;;4856257;29;20042;-91
2023/07/11 00:48:41;;;;;;;15.70;11.43;;;20.70;80.30;;;;;;4837703;29;20048;-92
2023/07/11 00:51:11;;;;;;;19.40;12.23;;;20.60;80.50;;;;;;4836107;29;20056;-91
2023/07/11 00:53:41;;;;;;;18.67;12.55;;;20.70;80.40;;;;;;4833048;29;20118;-91
2023/07/11 00:56:12;;;;;;;20.42;13.43;;;20.80;80.20;;;;;;4837775;29;20449;-91
2023/07/11 00:58:41;;;;;;;18.00;11.70;;;20.80;80.20;;;;;;4828428;29;20488;-91
2023/07/11 01:01:09;;;;;;;16.42;11.25;;;20.80;80.10;;;;;;4839201;29;20038;-91
2023/07/11 01:03:37;;;;;;;21.27;13.80;;;20.80;80.10;;;;;;4836120;29;20050;-91
2023/07/11 01:06:16;;;;;;;19.50;13.07;;;20.80;80.10;;;;;;4835730;29;20070;-91
2023/07/11 01:08:44;;;;;;;16.15;11.77;;;20.80;80.50;;;;;;4852296;29;20065;-91
2023/07/11 01:11:11;;;;;;;18.95;13.13;;;20.80;80.60;;;;;;4839384;29;20049;-91
2023/07/11 01:13:38;;;;;;;21.02;13.18;;;20.70;80.30;;;;;;4835485;29;20057;-91
2023/07/11 01:16:05;;;;;;;22.27;13.83;;;20.70;80.50;;;;;;4834568;29;20049;-91
2023/07/11 01:18:34;;;;;;;24.50;14.20;;;20.70;80.50;;;;;;4841205;29;20049;-90
2023/07/11 01:21:04;;;;;;;21.77;13.77;;;20.80;80.40;;;;;;4833623;29;20046;-90
2023/07/11 01:23:33;;;;;;;17.67;12.05;;;20.80;80.70;;;;;;4853915;29;20053;-91
2023/07/11 01:26:02;;;;;;;18.95;12.75;;;20.80;80.60;;;;;;4840528;29;20053;-90
2023/07/11 01:28:30;;;;;;;18.93;13.43;;;20.90;80.50;;;;;;4832074;29;20050;-90
2023/07/11 01:30:57;;;;;;;22.13;13.90;;;20.90;80.40;;;;;;4842069;29;20048;-90
2023/07/11 01:33:25;;;;;;;21.42;14.52;;;20.90;80.40;;;;;;4832497;29;20734;-90
2023/07/11 01:35:53;;;;;;;19.38;13.40;;;20.80;80.90;;;;;;4851055;29;20433;-91
2023/07/11 01:38:21;;;;;;;27.35;15.68;;;20.80;80.80;;;;;;4840422;29;20049;-91
2023/07/11 01:40:49;;;;;;;22.23;15.77;;;20.80;80.50;;;;;;4854093;29;20053;-91
2023/07/11 01:43:17;;;;;;;22.15;14.73;;;20.80;80.80;;;;;;4834301;29;20053;-91
2023/07/11 01:45:45;;;;;;;26.27;14.88;;;20.80;80.70;;;;;;4842552;29;20146;-91
2023/07/11 01:48:12;;;;;;;21.95;15.20;;;20.80;80.80;;;;;;4855310;29;20056;-90
2023/07/11 01:50:39;;;;;;;24.23;15.82;;;20.90;80.60;;;;;;4831778;29;20045;-90
2023/07/11 01:53:06;;;;;;;23.37;15.27;;;20.90;80.70;;;;;;4827315;29;20442;-91
2023/07/11 01:55:33;;;;;;;25.15;16.38;;;20.90;80.70;;;;;;4844032;29;20107;-91
2023/07/11 01:58:00;;;;;;;23.55;16.15;;;21.00;81.00;;;;;;4841411;29;20042;-91
2023/07/11 02:00:27;;;;;;;24.73;16.50;;;21.00;80.60;;;;;;4841447;29;20079;-91
2023/07/11 02:02:54;;;;;;;27.15;17.35;;;20.90;81.20;;;;;;4847928;29;20054;-91
2023/07/11 02:05:23;;;;;;;23.30;15.67;;;20.80;81.00;;;;;;4837582;29;20063;-91
2023/07/11 02:07:50;;;;;;;24.48;16.60;;;20.90;81.10;;;;;;4839445;29;20041;-91
2023/07/11 02:10:17;;;;;;;26.60;16.38;;;20.90;81.20;;;;;;4852488;29;20049;-91
2023/07/11 02:12:44;;;;;;;22.35;14.15;;;20.90;81.10;;;;;;4840321;29;20052;-91
2023/07/11 02:15:11;;;;;;;22.13;14.57;;;21.00;81.20;;;;;;4857796;29;20407;-91
2023/07/11 02:17:39;;;;;;;20.87;13.50;;;21.00;81.10;;;;;;4842623;29;20042;-91
2023/07/11 02:20:08;;;;;;;23.30;14.38;;;21.00;80.60;;;;;;4859680;29;20044;-90
2023/07/11 02:22:39;;;;;;;18.77;13.55;;;21.00;80.30;;;;;;4840358;29;20034;-90
2023/07/11 02:25:06;;;;;;;19.90;13.60;;;21.00;80.20;;;;;;4846414;29;20074;-91
2023/07/11 02:27:34;;;;;;;21.02;13.00;;;21.10;80.50;;;;;;4839035;29;20053;-91
2023/07/11 02:30:00;;;;;;;19.50;14.50;;;21.00;80.30;;;;;;4840063;29;20499;-91
2023/07/11 02:32:28;;;;;;;22.25;13.82;;;21.00;79.80;;;;;;4842269;29;20078;-91
2023/07/11 02:34:55;;;;;;;19.27;13.65;;;21.10;80.20;;;;;;4837191;29;20050;-91
2023/07/11 02:37:23;;;;;;;21.90;12.20;;;21.10;80.20;;;;;;4839397;29;20048;-91
2023/07/11 02:39:50;;;;;;;19.75;12.50;;;21.10;80.20;;;;;;4842993;29;20060;-91
2023/07/11 02:42:17;;;;;;;16.70;11.23;;;21.10;80.20;;;;;;4840011;29;20037;-91
2023/07/11 02:44:44;;;;;;;20.38;13.20;;;21.10;79.90;;;;;;4855649;29;20137;-91
2023/07/11 02:47:11;;;;;;;16.77;11.75;;;21.10;79.60;;;;;;4842919;29;20041;-91
2023/07/11 02:49:40;;;;;;;20.38;12.27;;;21.10;79.80;;;;;;4843282;29;20441;-91
2023/07/11 02:52:10;;;;;;;17.73;13.55;;;21.10;79.10;;;;;;4852351;29;20084;-91
2023/07/11 02:54:38;;;;;;;17.63;12.50;;;21.10;79.30;;;;;;4838319;29;20056;-90
2023/07/11 02:57:08;;;;;;;19.27;11.77;;;21.10;79.20;;;;;;4834818;29;21492;-91
2023/07/11 02:59:35;;;;;;;15.52;11.45;;;21.10;79.20;;;;;;4839937;29;20496;-91
2023/07/11 03:02:02;;;;;;;17.30;10.35;;;21.10;79.20;;;;;;4852255;29;20057;-91
2023/07/11 03:04:31;;;;;;;15.60;10.82;;;21.10;78.80;;;;;;4844582;29;20057;-91
2023/07/11 03:06:58;;;;;;;17.50;10.40;;;21.10;78.60;;;;;;4844680;29;20049;-90
2023/07/11 03:09:27;;;;;;;17.38;10.90;;;21.10;78.60;;;;;;4840599;29;20084;-91
2023/07/11 03:11:54;;;;;;;20.30;10.32;;;21.10;78.90;;;;;;4844191;29;20074;-91
2023/07/11 03:14:21;;;;;;;13.30;8.95;;;21.00;78.40;;;;;;4844250;29;20415;-91
2023/07/11 03:16:52;;;;;;;17.08;9.85;;;21.00;78.20;;;;;;4843136;29;20045;-91
2023/07/11 03:19:20;;;;;;;16.13;9.50;;;21.00;78.50;;;;;;4839693;29;20049;-92
2023/07/11 03:21:47;;;;;;;16.25;10.15;;;21.00;78.30;;;;;;4852371;29;20053;-91
2023/07/11 03:24:15;;;;;;;13.48;9.25;;;20.90;78.00;;;;;;4832966;29;20056;-91
2023/07/11 03:26:45;;;;;;;12.00;8.00;;;20.90;77.70;;;;;;4839041;29;20084;-93
2023/07/11 03:29:16;;;;;;;12.23;8.30;;;20.80;77.00;;;;;;4829370;29;20083;-92
2023/07/11 03:31:43;;;;;;;13.73;7.93;;;20.90;76.50;;;;;;4828862;29;20126;-93
2023/07/11 03:34:10;;;;;;;13.35;8.23;;;20.80;76.70;;;;;;4829396;29;20053;-93
2023/07/11 03:36:40;;;;;;;13.75;7.80;;;20.80;76.90;;;;;;4830697;29;20136;-93
2023/07/11 03:39:08;;;;;;;13.07;7.85;;;20.80;76.50;;;;;;4830228;29;20102;-92
2023/07/11 03:41:36;;;;;;;14.48;7.80;;;20.90;76.80;;;;;;4829934;29;20117;-93
2023/07/11 03:44:03;;;;;;;12.53;7.20;;;20.90;76.50;;;;;;4829840;29;20505;-93
2023/07/11 03:46:31;;;;;;;12.75;8.07;;;20.90;76.10;;;;;;4829273;29;20398;-91
2023/07/11 03:49:00;;;;;;;12.63;7.50;;;20.90;76.00;;;;;;4828842;29;20515;-92
2023/07/11 03:51:27;;;;;;;13.98;7.18;;;20.90;76.10;;;;;;4863857;29;20053;-89
2023/07/11 03:53:54;;;;;;;12.77;7.20;;;20.90;75.60;;;;;;4849363;29;20048;-89
2023/07/11 03:56:21;;;;;;;10.93;6.87;;;20.90;75.90;;;;;;4848815;29;20101;-89
2023/07/11 03:58:49;;;;;;;12.63;6.90;;;20.90;75.40;;;;;;4843307;29;20050;-89
2023/07/11 04:01:16;;;;;;;12.88;7.18;;;20.80;75.90;;;;;;4829616;29;20057;-88
2023/07/11 04:03:44;;;;;;;11.95;7.32;;;20.80;75.30;;;;;;4845913;29;20045;-89
2023/07/11 04:06:11;;;;;;;11.82;7.10;;;20.80;75.70;;;;;;4831096;29;20083;-89
2023/07/11 04:08:39;;;;;;;13.63;7.20;;;20.80;75.50;;;;;;4834198;29;20057;-89
2023/07/11 04:11:06;;;;;;;12.93;6.80;;;20.80;75.40;;;;;;4843832;29;20446;-89
2023/07/11 04:13:33;;;;;;;11.63;7.30;;;20.80;75.50;;;;;;4838202;29;20080;-89
2023/07/11 04:16:01;;;;;;;10.65;6.45;;;20.90;75.20;;;;;;4838217;29;20049;-90
2023/07/11 04:18:28;;;;;;;10.68;6.60;;;20.80;75.10;;;;;;4836762;29;20079;-88
2023/07/11 04:20:55;;;;;;;14.90;7.10;;;20.90;75.00;;;;;;4845980;29;20550;-89
2023/07/11 04:23:22;;;;;;;11.57;7.10;;;20.90;75.00;;;;;;4847891;29;20110;-89
2023/07/11 04:25:49;;;;;;;12.35;7.30;;;20.90;75.10;;;;;;4836323;29;20135;-89
2023/07/11 04:28:16;;;;;;;11.38;6.50;;;21.00;75.20;;;;;;4844044;29;20056;-89
2023/07/11 04:30:43;;;;;;;10.60;7.35;;;21.00;74.70;;;;;;4836593;29;20084;-89
2023/07/11 04:33:11;;;;;;;10.37;6.40;;;21.10;74.90;;;;;;4841112;29;20045;-89
2023/07/11 04:35:39;;;;;;;11.40;7.53;;;21.10;74.80;;;;;;4848626;29;20068;-89
2023/07/11 04:38:06;;;;;;;12.30;6.80;;;21.10;74.90;;;;;;4852094;29;20049;-88
2023/07/11 04:40:33;;;;;;;13.07;7.28;;;21.10;74.30;;;;;;4840075;29;20492;-89
2023/07/11 04:43:00;;;;;;;13.75;6.95;;;21.10;74.30;;;;;;4841915;29;20045;-88
2023/07/11 04:45:27;;;;;;;12.13;7.10;;;21.10;74.50;;;;;;4839270;29;20057;-88
2023/07/11 04:47:55;;;;;;;15.05;8.43;;;21.10;73.90;;;;;;4839585;29;20049;-88
2023/07/11 04:50:22;;;;;;;12.75;7.03;;;21.10;74.20;;;;;;4836444;29;20053;-88
2023/07/11 04:52:50;;;;;;;16.10;7.55;;;21.00;74.20;;;;;;4846123;29;20045;-88
2023/07/11 04:55:17;;;;;;;15.32;7.65;;;21.10;74.20;;;;;;4858670;29;20105;-88
2023/07/11 04:57:44;;;;;;;15.30;8.10;;;21.10;74.40;;;;;;4841352;29;20132;-88
2023/07/11 05:00:12;;;;;;;13.80;7.45;;;21.10;74.40;;;;;;4837165;29;20045;-88
2023/07/11 05:02:39;;;;;;;12.68;7.25;;;21.20;74.00;;;;;;4836399;29;20067;-88
2023/07/11 05:05:06;;;;;;;12.68;6.60;;;21.30;73.60;;;;;;4839612;29;20067;-88
2023/07/11 05:07:35;;;;;;;9.45;6.65;;;21.30;73.50;;;;;;4846308;29;20057;-89
2023/07/11 05:10:02;;;;;;;10.00;6.63;;;21.30;72.70;;;;;;4846732;29;20041;-88
2023/07/11 05:12:29;;;;;;;9.75;6.47;;;21.20;72.70;;;;;;4843035;29;20539;-88
2023/07/11 05:14:56;;;;;;;10.75;6.72;;;21.30;73.20;;;;;;4859621;29;20596;-91
2023/07/11 05:17:23;;;;;;;9.98;6.47;;;21.50;72.60;;;;;;4851982;29;20456;-91
2023/07/11 05:19:51;;;;;;;14.45;7.53;;;21.60;72.40;;;;;;4851883;29;20148;-91
2023/07/11 05:22:18;;;;;;;11.93;6.47;;;21.80;72.30;;;;;;4851818;29;20041;-91
2023/07/11 05:24:45;;;;;;;10.77;5.65;;;21.90;71.30;;;;;;4852223;29;20049;-91
2023/07/11 05:27:12;;;;;;;10.40;6.35;;;22.10;71.40;;;;;;4852285;29;20063;-91
2023/07/11 05:29:39;;;;;;;10.27;6.20;;;22.20;71.90;;;;;;4852201;29;20057;-91
2023/07/11 05:32:07;;;;;;;12.70;6.38;;;22.30;71.40;;;;;;4852927;29;20414;-91
2023/07/11 05:34:34;;;;;;;13.50;6.47;;;22.40;70.50;;;;;;4852164;29;20511;-91
2023/07/11 05:37:05;;;;;;;10.27;5.32;;;22.40;69.70;;;;;;4852134;29;20113;-91
2023/07/11 05:39:32;;;;;;;12.73;5.40;;;22.40;68.70;;;;;;4851514;29;20041;-91
2023/07/11 05:42:00;;;;;;;11.57;5.22;;;22.20;68.60;;;;;;4851725;29;20072;-91
2023/07/11 05:44:30;;;;;;;11.20;5.15;;;22.10;69.10;;;;;;4852048;29;20051;-91
2023/07/11 05:46:57;;;;;;;13.23;5.00;;;22.10;68.50;;;;;;4851589;29;20143;-91
2023/07/11 05:49:24;;;;;;;10.95;4.80;;;22.20;68.20;;;;;;4851793;29;20126;-91
2023/07/11 05:51:51;;;;;;;11.10;4.93;;;22.20;67.50;;;;;;4851282;29;20097;-90
2023/07/11 05:54:19;;;;;;;10.75;5.00;;;22.30;67.40;;;;;;4851508;29;20461;-91
2023/07/11 05:56:46;;;;;;;8.65;4.50;;;22.20;67.80;;;;;;4851161;29;20053;-92
2023/07/11 05:59:13;;;;;;;8.60;4.60;;;22.30;67.70;;;;;;4851522;29;20045;-92
2023/07/11 06:01:41;;;;;;;14.45;5.93;;;22.30;68.40;;;;;;4851099;29;20049;-92
2023/07/11 06:04:13;;;;;;;9.43;4.50;;;22.30;68.30;;;;;;4852338;29;20045;-91
2023/07/11 06:06:41;;;;;;;8.63;4.32;;;22.30;67.30;;;;;;4853615;29;20448;-93
2023/07/11 06:09:15;;;;;;;8.77;4.57;;;22.40;67.30;;;;;;4858321;29;20057;-93
2023/07/11 06:11:44;;;;;;;28.43;6.17;;;22.40;66.00;;;;;;4858091;29;20053;-93
2023/07/11 06:14:12;;;;;;;75.10;9.35;;;22.30;66.60;;;;;;4857868;29;20057;-93
2023/07/11 06:16:41;;;;;;;26.90;6.25;;;22.40;66.70;;;;;;4855843;29;20045;-93
2023/07/11 06:19:09;;;;;;;10.45;4.28;;;22.50;65.40;;;;;;4852274;29;20073;-93
2023/07/11 06:21:36;;;;;;;11.52;4.38;;;22.60;65.50;;;;;;4866991;29;20484;-93
2023/07/11 06:24:04;;;;;;;8.30;4.03;;;22.80;65.60;;;;;;4853184;29;20099;-93
2023/07/11 06:26:31;;;;;;;12.13;4.72;;;22.70;65.10;;;;;;4852603;29;20526;-92
2023/07/11 06:28:58;;;;;;;18.70;6.65;;;22.60;65.30;;;;;;4852577;29;20072;-93
2023/07/11 06:31:36;;;;;;;10.20;4.72;;;22.60;66.10;;;;;;4871554;29;20101;-93
2023/07/11 06:34:07;;;;;;;10.60;4.07;;;22.60;65.80;;;;;;4852805;29;20045;-92
2023/07/11 06:36:34;;;;;;;20.27;5.00;;;22.80;65.00;;;;;;4854509;29;20060;-94
2023/07/11 06:39:01;;;;;;;52.75;9.23;;;22.90;64.60;;;;;;4859152;29;20049;-94
2023/07/11 06:41:32;;;;;;;38.38;7.22;;;23.00;64.70;;;;;;4874603;29;20057;-94
2023/07/11 06:43:59;;;;;;;12.63;4.43;;;23.20;64.00;;;;;;4875345;29;20116;-93
2023/07/11 06:46:27;;;;;;;11.00;4.38;;;23.20;62.20;;;;;;4858349;29;20045;-93
2023/07/11 06:48:58;;;;;;;8.90;3.97;;;23.40;62.90;;;;;;4859263;29;20059;-94
2023/07/11 06:51:28;;;;;;;13.20;4.20;;;23.40;63.50;;;;;;4860430;29;20068;-94
2023/07/11 06:53:56;;;;;;;33.97;6.32;;;23.50;64.60;;;;;;4860169;29;20056;-94
2023/07/11 06:56:25;;;;;;;9.95;4.03;;;23.60;63.10;;;;;;4859584;29;20061;-94
2023/07/11 06:58:54;;;;;;;8.73;3.95;;;23.90;61.80;;;;;;4858892;29;20081;-94
2023/07/11 07:01:22;;;;;;;8.80;4.10;;;23.80;61.10;;;;;;4857148;29;20045;-94
2023/07/11 07:04:04;;;;;;;7.53;3.58;;;23.60;61.20;;;;;;4860826;29;20063;-94
2023/07/11 07:06:33;;;;;;;9.80;4.45;;;23.60;62.10;;;;;;4858095;29;20056;-94
2023/07/11 07:09:00;;;;;;;9.10;4.50;;;23.50;61.60;;;;;;4860340;29;20510;-94
2023/07/11 07:11:32;;;;;;;7.28;3.75;;;23.50;61.60;;;;;;4875067;29;20074;-94
2023/07/11 07:14:00;;;;;;;8.13;3.50;;;23.60;60.30;;;;;;4859330;29;20078;-94
2023/07/11 07:16:34;;;;;;;9.73;3.80;;;23.70;60.10;;;;;;4875567;29;20053;-93
2023/07/11 07:19:03;;;;;;;8.35;3.70;;;23.80;61.20;;;;;;4859902;29;20049;-94
2023/07/11 07:21:31;;;;;;;11.45;4.45;;;23.90;60.70;;;;;;4857805;29;20053;-94
2023/07/11 07:23:59;;;;;;;7.45;3.78;;;23.70;60.00;;;;;;4858633;29;20053;-93
2023/07/11 07:26:27;;;;;;;7.20;3.80;;;23.80;61.10;;;;;;4860036;29;20148;-94
2023/07/11 07:28:55;;;;;;;7.18;3.53;;;24.00;60.70;;;;;;4858285;29;20155;-94
2023/07/11 07:31:23;;;;;;;8.57;3.53;;;24.00;59.50;;;;;;4858674;29;20420;-93
2023/07/11 07:33:51;;;;;;;6.97;3.13;;;23.90;58.70;;;;;;4856533;29;20053;-93
2023/07/11 07:36:18;;;;;;;7.40;3.47;;;23.90;58.30;;;;;;4857546;29;20496;-94
2023/07/11 07:38:48;;;;;;;11.13;3.83;;;24.10;59.50;;;;;;4858125;29;20045;-94
2023/07/11 07:41:16;;;;;;;8.13;3.92;;;24.30;59.20;;;;;;4855974;29;20140;-94
2023/07/11 07:43:44;;;;;;;7.97;3.30;;;24.30;58.60;;;;;;4854288;29;20045;-94
2023/07/11 07:46:14;;;;;;;8.63;3.50;;;24.10;59.20;;;;;;4854818;29;20049;-94
2023/07/11 07:48:43;;;;;;;7.65;3.55;;;23.70;59.50;;;;;;4870930;29;20053;-94
2023/07/11 07:51:16;;;;;;;10.70;3.73;;;23.60;59.90;;;;;;4858375;29;20121;-94
2023/07/11 07:53:44;;;;;;;8.68;3.78;;;23.70;59.60;;;;;;4859980;29;20515;-93
2023/07/11 07:56:19;;;;;;;9.40;3.40;;;23.90;58.70;;;;;;4859908;29;20085;-94
2023/07/11 07:58:47;;;;;;;9.27;3.45;;;24.00;58.70;;;;;;4858851;29;20128;-94
2023/07/11 08:01:17;;;;;;;7.07;3.75;;;24.10;57.80;;;;;;4859572;29;20073;-94
2023/07/11 08:03:45;;;;;;;6.90;2.90;;;24.20;57.30;;;;;;4858872;29;20060;-94
2023/07/11 08:06:15;;;;;;;8.38;3.15;;;24.30;58.60;;;;;;4858995;29;20120;-94
2023/07/11 08:08:45;;;;;;;9.25;3.33;;;24.30;57.60;;;;;;4859291;29;20053;-94
2023/07/11 08:11:15;;;;;;;8.90;3.35;;;24.50;57.30;;;;;;4859599;29;20055;-94
2023/07/11 08:13:47;;;;;;;7.28;3.25;;;24.60;57.40;;;;;;4856374;29;20153;-94
2023/07/11 08:16:27;;;;;;;6.13;2.80;;;24.60;57.50;;;;;;4858457;29;20078;-94
2023/07/11 08:19:04;;;;;;;7.00;2.90;;;24.70;56.30;;;;;;4858361;29;20504;-93
2023/07/11 08:21:32;;;;;;;11.27;2.80;;;24.80;56.00;;;;;;4858258;29;20064;-94
2023/07/11 08:24:00;;;;;;;9.32;3.53;;;24.90;55.80;;;;;;4857063;29;20045;-94
2023/07/11 08:26:30;;;;;;;5.97;2.72;;;24.70;54.00;;;;;;4856731;29;20048;-93
2023/07/11 08:28:59;;;;;;;8.13;2.90;;;24.60;55.40;;;;;;4873807;29;20061;-94
2023/07/11 08:31:36;;;;;;;7.53;2.88;;;24.60;54.40;;;;;;4857494;29;20049;-94
2023/07/11 08:34:03;;;;;;;6.72;2.67;;;24.60;54.80;;;;;;4855964;29;20067;-93
2023/07/11 08:36:31;;;;;;;6.43;2.45;;;24.40;55.30;;;;;;4854323;29;20049;-93
2023/07/11 08:38:58;;;;;;;6.75;2.63;;;24.30;56.90;;;;;;4854833;29;20127;-93
2023/07/11 08:41:46;;;;;;;7.23;2.63;;;24.30;56.40;;;;;;4855002;29;20045;-93
2023/07/11 08:44:43;;;;;;;7.50;2.70;;;24.30;55.70;;;;;;4856206;29;20130;-94
2023/07/11 08:47:14;;;;;;;6.60;2.75;;;24.40;56.20;;;;;;4855080;29;20045;-94
2023/07/11 08:49:55;;;;;;;10.93;3.35;;;24.60;56.50;;;;;;4874945;29;20069;-94
2023/07/11 08:52:25;;;;;;;6.60;2.80;;;24.70;56.00;;;;;;4858224;29;20045;-94
2023/07/11 08:55:00;;;;;;;6.47;2.40;;;25.10;55.10;;;;;;4859269;29;20189;-94
2023/07/11 08:57:43;;;;;;;6.05;2.65;;;25.10;53.60;;;;;;4860384;29;20049;-94
2023/07/11 09:00:19;;;;;;;6.32;2.22;;;25.30;52.40;;;;;;4875364;29;20056;-94
2023/07/11 09:02:56;;;;;;;6.88;2.50;;;25.60;54.00;;;;;;4858616;29;20110;-94
2023/07/11 09:05:43;;;;;;;5.80;2.20;;;25.70;52.40;;;;;;4873831;29;20056;-94
2023/07/11 09:08:16;;;;;;;8.30;2.77;;;25.70;52.40;;;;;;4874868;29;20053;-94
2023/07/11 09:11:19;;;;;;;5.43;1.98;;;25.60;52.40;;;;;;4858328;29;20116;-93
2023/07/11 09:14:14;;;;;;;8.35;2.08;;;25.60;50.00;;;;;;4855544;29;20055;-94
2023/07/11 09:17:10;;;;;;;6.43;2.05;;;25.10;50.20;;;;;;4858879;29;20061;-94
2023/07/11 09:20:11;;;;;;;7.97;2.40;;;25.20;51.50;;;;;;4874626;29;20045;-94
2023/07/11 09:22:56;;;;;;;7.63;2.20;;;25.40;50.60;;;;;;4861711;29;20082;-94
2023/07/11 09:25:37;;;;;;;6.93;2.10;;;25.50;52.10;;;;;;4862338;29;20053;-94
2023/07/11 09:28:15;;;;;;;5.85;2.20;;;25.60;51.60;;;;;;4861895;29;20539;-94
2023/07/11 09:31:00;;;;;;;6.50;2.20;;;25.60;50.80;;;;;;4862103;29;20074;-94
2023/07/11 09:33:34;;;;;;;6.13;2.08;;;25.60;52.30;;;;;;4860123;29;20052;-94
2023/07/11 09:36:11;;;;;;;5.33;2.00;;;25.80;51.60;;;;;;4860527;29;20049;-93
2023/07/11 09:38:48;;;;;;;6.90;2.63;;;25.90;51.70;;;;;;4858157;29;20045;-93
2023/07/11 09:41:21;;;;;;;4.65;1.83;;;25.80;51.50;;;;;;4857452;29;20044;-94
2023/07/11 09:43:48;;;;;;;6.53;2.00;;;25.80;50.20;;;;;;4857859;29;20045;-93
2023/07/11 09:46:25;;;;;;;5.47;1.80;;;25.90;47.40;;;;;;4857014;29;20407;-94
2023/07/11 09:48:57;;;;;;;6.60;2.13;;;25.80;48.40;;;;;;4857672;29;20083;-94
2023/07/11 09:51:36;;;;;;;4.32;1.60;;;26.00;48.10;;;;;;4872381;29;20080;-93
2023/07/11 09:54:20;;;;;;;4.55;1.33;;;26.10;48.20;;;;;;4860784;29;20139;-94
2023/07/11 09:56:49;;;;;;;4.28;1.42;;;26.20;49.20;;;;;;4861048;29;20131;-93
2023/07/11 09:59:18;;;;;;;5.45;1.77;;;26.20;45.40;;;;;;4860866;29;20113;-95
2023/07/11 10:01:53;;;;;;;4.53;1.73;;;26.10;46.80;;;;;;4860191;29;20507;-94
2023/07/11 10:04:25;;;;;;;5.35;1.90;;;26.20;46.10;;;;;;4857939;29;20065;-93
2023/07/11 10:07:01;;;;;;;6.60;2.05;;;26.10;46.70;;;;;;4859243;29;20456;-94
2023/07/11 10:09:31;;;;;;;4.75;1.55;;;26.50;48.20;;;;;;4860140;29;20049;-94
2023/07/11 10:12:01;;;;;;;4.75;1.55;;;26.60;47.30;;;;;;4859628;29;20066;-94
2023/07/11 10:14:32;;;;;;;4.17;1.50;;;26.60;48.20;;;;;;4860434;29;20049;-94
2023/07/11 10:17:13;;;;;;;4.03;1.40;;;26.60;45.90;;;;;;4858781;29;20496;-94
2023/07/11 10:19:43;;;;;;;6.68;1.55;;;26.60;45.80;;;;;;4861117;29;20045;-94
2023/07/11 10:22:20;;;;;;;8.88;1.63;;;26.80;46.20;;;;;;4859972;29;20065;-94
2023/07/11 10:24:50;;;;;;;4.15;1.50;;;26.90;46.30;;;;;;4875341;29;20056;-94
2023/07/11 10:27:29;;;;;;;5.37;1.50;;;27.00;43.20;;;;;;4876183;29;20120;-95
2023/07/11 10:30:01;;;;;;;5.22;1.20;;;27.10;42.90;;;;;;4858967;29;20088;-94
2023/07/11 10:33:00;;;;;;;4.80;1.23;;;27.10;42.60;;;;;;4858562;29;20053;-94
2023/07/11 10:35:55;;;;;;;4.53;1.67;;;27.00;44.10;;;;;;4863568;29;20061;-94
2023/07/11 10:38:43;;;;;;;5.65;1.60;;;27.20;44.40;;;;;;4874956;29;20049;-94
2023/07/11 10:41:20;;;;;;;5.37;1.60;;;27.30;43.10;;;;;;4860476;29;20073;-94
2023/07/11 10:43:51;;;;;;;4.78;1.30;;;27.30;44.50;;;;;;4874550;29;20049;-94
2023/07/11 10:46:35;;;;;;;4.22;1.40;;;27.30;45.00;;;;;;4860145;29;20081;-95
2023/07/11 10:49:09;;;;;;;4.20;1.52;;;27.40;43.40;;;;;;4859706;29;20539;-94
2023/07/11 10:51:52;;;;;;;4.55;1.40;;;27.40;44.00;;;;;;4859375;29;20062;-94
2023/07/11 10:54:42;;;;;;;4.67;1.77;;;27.40;43.90;;;;;;4873718;29;20052;-94
2023/07/11 10:57:33;;;;;;;4.22;1.63;;;27.40;43.30;;;;;;4860237;29;20120;-94
2023/07/11 11:00:18;;;;;;;4.45;1.48;;;27.50;42.60;;;;;;4861814;29;20049;-95
2023/07/11 11:02:57;;;;;;;5.72;1.45;;;27.60;43.50;;;;;;4858235;29;20496;-94
2023/07/11 11:05:35;;;;;;;5.70;1.75;;;27.40;41.10;;;;;;4857501;29;20491;-94
2023/07/11 11:08:16;;;;;;;8.27;1.77;;;27.30;41.30;;;;;;4856970;29;20052;-94
2023/07/11 11:11:00;;;;;;;8.73;1.65;;;27.30;42.90;;;;;;4857775;29;20109;-94
2023/07/11 11:13:35;;;;;;;4.88;1.35;;;27.50;43.40;;;;;;4857922;29;20045;-94
2023/07/11 11:16:32;;;;;;;3.38;1.20;;;27.50;42.70;;;;;;4859009;29;20063;-94
2023/07/11 11:19:13;;;;;;;5.65;1.55;;;27.50;42.80;;;;;;4856794;29;20049;-94
2023/07/11 11:22:04;;;;;;;3.33;1.10;;;27.60;42.90;;;;;;4855199;29;20108;-94
2023/07/11 11:24:49;;;;;;;4.68;1.30;;;27.80;43.40;;;;;;4856442;29;20045;-94
2023/07/11 11:27:45;;;;;;;4.60;1.30;;;28.10;42.30;;;;;;4856719;29;20468;-93
2023/07/11 11:30:25;;;;;;;4.40;1.40;;;28.20;41.60;;;;;;4872712;29;20097;-95
2023/07/11 11:33:12;;;;;;;6.03;1.52;;;28.20;41.30;;;;;;4854968;29;20045;-95
2023/07/11 11:36:27;;;;;;;13.00;2.10;;;28.10;41.70;;;;;;4873804;29;20053;-94
2023/07/11 11:39:10;;;;;;;5.50;1.70;;;27.90;41.70;;;;;;4858739;29;20044;-95
2023/07/11 11:42:08;;;;;;;5.03;1.02;;;28.10;41.80;;;;;;4855871;29;20495;-94
2023/07/11 11:44:55;;;;;;;4.45;1.10;;;28.10;41.80;;;;;;4855947;29;20049;-94
2023/07/11 11:47:28;;;;;;;5.20;1.17;;;28.10;40.80;;;;;;4856492;29;20087;-94
2023/07/11 11:49:59;;;;;;;3.37;1.20;;;28.10;41.90;;;;;;4856441;29;20086;-94
2023/07/11 11:52:34;;;;;;;4.82;1.30;;;28.00;41.10;;;;;;4858135;29;20117;-94
2023/07/11 11:55:37;;;;;;;4.40;1.40;;;27.90;41.20;;;;;;4858825;29;20045;-94
2023/07/11 11:58:18;;;;;;;4.97;1.10;;;27.90;41.60;;;;;;4856509;29;22024;-94
2023/07/11 12:00:52;;;;;;;3.88;1.20;;;28.20;39.80;;;;;;4857277;29;20049;-94
2023/07/11 12:03:28;;;;;;;6.67;1.10;;;28.30;39.00;;;;;;4855943;29;20052;-94
2023/07/11 12:06:04;;;;;;;4.50;1.00;;;28.60;39.30;;;;;;4854120;29;20080;-93
2023/07/11 12:08:35;;;;;;;3.47;1.13;;;28.60;38.80;;;;;;4853579;29;20499;-95
2023/07/11 12:11:07;;;;;;;4.03;1.15;;;28.10;38.10;;;;;;4853123;29;20049;-93
2023/07/11 12:13:38;;;;;;;4.22;1.15;;;28.10;39.50;;;;;;4854771;29;20072;-94
2023/07/11 12:16:21;;;;;;;4.20;1.10;;;28.20;38.70;;;;;;4854503;29;20057;-94
2023/07/11 12:19:29;;;;;;;5.35;1.38;;;28.40;39.10;;;;;;4866318;29;20110;-94
2023/07/11 12:21:59;;;;;;;4.47;1.25;;;28.60;39.40;;;;;;4852920;29;20049;-94
2023/07/11 12:24:33;;;;;;;5.45;1.33;;;28.60;38.80;;;;;;4852241;29;20051;-93
2023/07/11 12:27:21;;;;;;;3.83;1.38;;;28.80;40.80;;;;;;4853127;29;20045;-94
2023/07/11 12:29:51;;;;;;;5.37;1.63;;;28.80;39.20;;;;;;4851062;29;20538;-94
2023/07/11 12:32:33;;;;;;;5.15;0.95;;;28.90;39.10;;;;;;4852080;29;20049;-94
2023/07/11 12:35:06;;;;;;;3.58;1.00;;;29.00;38.50;;;;;;4852330;29;20101;-93
2023/07/11 12:37:46;;;;;;;3.72;1.00;;;28.90;37.40;;;;;;4852388;29;20048;-94
2023/07/11 12:40:20;;;;;;;3.40;0.93;;;28.70;37.20;;;;;;4853057;29;20053;-95
2023/07/11 12:43:01;;;;;;;4.00;1.13;;;28.60;36.60;;;;;;4854000;29;20050;-94
2023/07/11 12:45:36;;;;;;;3.88;1.20;;;28.60;38.10;;;;;;4853312;29;20049;-94
2023/07/11 12:48:06;;;;;;;4.28;1.08;;;28.80;38.00;;;;;;4851149;29;20049;-94
2023/07/11 12:50:44;;;;;;;4.82;0.90;;;28.70;37.50;;;;;;4850011;29;20049;-94
2023/07/11 12:53:12;;;;;;;4.60;1.30;;;28.90;39.10;;;;;;4851983;29;20534;-94
2023/07/11 12:55:48;;;;;;;4.43;1.43;;;29.00;37.50;;;;;;4854229;29;20084;-95
2023/07/11 12:58:30;;;;;;;6.25;1.00;;;29.10;38.10;;;;;;4854667;29;20045;-94
2023/07/11 13:00:58;;;;;;;3.60;0.88;;;29.10;36.20;;;;;;4853452;29;20053;-94
2023/07/11 13:03:27;;;;;;;5.57;1.20;;;29.10;36.40;;;;;;4853878;29;20052;-94